Terminal Aerodrome Forecast
Issued by NWS

Home | Current Version | Previous Version | Text Only | Print | Product List | Glossary On
Versions: 1 2 3 4 5 6 7 8 9 10 11 12 13 14
000
FTUS45 KBOI 301720
TAFTWF
TAF
KTWF 301720Z 3018/0118 27018G25KT P6SM BKN090
     FM010200 23015KT P6SM BKN060
     FM010800 23018G25KT P6SM SCT060=

USA.gov is the U.S. government's official web portal to all federal, state and local government web resources and services.